Time;durP1;ratioP1;P1;durP2;ratioP2;P2;SDS_P1;SDS_P2;PMS_P1;PMS_P2;Temp;Humidity;BMP_temperature;BMP_pressure;BME280_temperature;BME280_humidity;BME280_pressure;Samples;Min_cycle;Max_cycle;Signal;HPM_P1;HPM_P2
2022/08/10 00:00:20;;;;;;;3.45;2.65;;;17.70;99.90;;;;;;5014357;28;20176;-65
2022/08/10 00:02:51;;;;;;;4.07;2.83;;;17.70;99.90;;;;;;5014594;28;20645;-64
2022/08/10 00:05:17;;;;;;;4.15;3.30;;;17.80;99.90;;;;;;5014285;28;20313;-64
2022/08/10 00:07:43;;;;;;;4.38;3.20;;;17.70;99.90;;;;;;5014153;28;20207;-65
2022/08/10 00:10:13;;;;;;;3.75;2.88;;;17.70;99.90;;;;;;5013950;28;20207;-65
2022/08/10 00:12:39;;;;;;;6.25;3.00;;;17.60;99.90;;;;;;5014138;28;20176;-65
2022/08/10 00:15:07;;;;;;;5.22;2.85;;;17.60;99.90;;;;;;5014636;28;20196;-65
2022/08/10 00:17:34;;;;;;;6.25;3.30;;;17.60;99.90;;;;;;5014221;28;20196;-64
2022/08/10 00:19:59;;;;;;;3.50;2.70;;;17.60;99.90;;;;;;5029292;28;20230;-65
2022/08/10 00:22:25;;;;;;;3.50;2.78;;;17.50;99.90;;;;;;5014287;28;20176;-64
2022/08/10 00:24:51;;;;;;;3.95;2.97;;;17.40;99.90;;;;;;4996143;28;20548;-65
2022/08/10 00:27:17;;;;;;;6.95;2.97;;;17.40;99.90;;;;;;5013892;28;20234;-64
2022/08/10 00:29:43;;;;;;;3.80;2.58;;;17.30;99.90;;;;;;5014428;28;20203;-65
2022/08/10 00:32:08;;;;;;;4.72;2.70;;;17.40;99.90;;;;;;5013978;28;20262;-64
2022/08/10 00:34:34;;;;;;;3.63;2.63;;;17.30;99.90;;;;;;5013851;28;20195;-64
2022/08/10 00:37:00;;;;;;;2.83;2.58;;;17.30;99.90;;;;;;5013748;28;20218;-66
2022/08/10 00:39:28;;;;;;;3.60;3.10;;;17.20;99.90;;;;;;5013632;28;20200;-64
2022/08/10 00:41:54;;;;;;;4.07;3.13;;;17.20;99.90;;;;;;5014127;28;20191;-65
2022/08/10 00:44:20;;;;;;;4.90;2.95;;;17.20;99.90;;;;;;5014834;28;20517;-65
2022/08/10 00:46:46;;;;;;;3.30;3.00;;;17.20;99.90;;;;;;5029295;28;20191;-65
2022/08/10 00:49:13;;;;;;;3.10;2.78;;;17.10;99.90;;;;;;5014217;28;20203;-65
2022/08/10 00:51:40;;;;;;;4.07;2.67;;;17.10;99.90;;;;;;5014321;28;20171;-64
2022/08/10 00:54:06;;;;;;;4.97;3.13;;;17.00;99.90;;;;;;5013692;28;20664;-65
2022/08/10 00:56:32;;;;;;;5.15;3.15;;;17.00;99.90;;;;;;5013627;28;20559;-64
2022/08/10 00:58:58;;;;;;;8.50;3.13;;;17.00;99.90;;;;;;5013578;28;20207;-65
2022/08/10 01:01:24;;;;;;;3.95;3.10;;;17.00;99.90;;;;;;5013963;28;20543;-63
2022/08/10 01:03:49;;;;;;;4.35;2.90;;;17.00;99.90;;;;;;4996098;28;20190;-63
2022/08/10 01:06:32;;;;;;;4.65;3.05;;;17.10;99.90;;;;;;4997374;28;20226;-64
2022/08/10 01:09:13;;;;;;;4.68;2.90;;;17.00;99.90;;;;;;5017270;28;20294;-63
2022/08/10 01:11:48;;;;;;;6.82;3.05;;;16.90;99.90;;;;;;5017833;28;20163;-64
2022/08/10 01:14:40;;;;;;;5.50;3.05;;;16.80;99.90;;;;;;4999836;28;20614;-64
2022/08/10 01:17:14;;;;;;;5.95;3.28;;;16.80;99.90;;;;;;5017336;28;20636;-63
2022/08/10 01:20:06;;;;;;;4.28;3.08;;;16.70;99.90;;;;;;5017721;28;20632;-63
2022/08/10 01:23:03;;;;;;;4.95;3.17;;;16.70;99.90;;;;;;5017576;28;20168;-64
2022/08/10 01:26:07;;;;;;;3.65;2.97;;;16.70;99.90;;;;;;4999566;28;20179;-63
2022/08/10 01:29:09;;;;;;;5.47;3.28;;;16.50;99.90;;;;;;5017145;28;20684;-63
2022/08/10 01:31:41;;;;;;;3.83;3.28;;;16.40;99.90;;;;;;4999548;28;20179;-63
2022/08/10 01:34:13;;;;;;;4.20;3.17;;;16.30;99.90;;;;;;4999551;28;20175;-63
2022/08/10 01:36:48;;;;;;;4.47;3.20;;;16.20;99.90;;;;;;5017089;28;20176;-64
2022/08/10 01:39:31;;;;;;;4.60;3.35;;;16.20;99.90;;;;;;5016948;28;20241;-63
2022/08/10 01:42:00;;;;;;;5.82;3.58;;;16.10;99.90;;;;;;5017321;28;20573;-63
2022/08/10 01:44:43;;;;;;;4.30;3.33;;;16.10;99.90;;;;;;4999257;28;20190;-63
2022/08/10 01:50:12;;;;;;;4.15;3.35;;;16.10;99.90;;;;;;5017139;28;20242;-63
2022/08/10 01:52:41;;;;;;;4.20;3.20;;;16.10;99.90;;;;;;5017129;28;20315;-63
2022/08/10 01:55:10;;;;;;;3.67;2.95;;;16.10;99.90;;;;;;5016609;28;20535;-63
2022/08/10 01:57:39;;;;;;;4.30;3.40;;;16.10;99.90;;;;;;5016787;28;20206;-63
2022/08/10 02:00:07;;;;;;;5.10;3.50;;;16.10;99.90;;;;;;5016639;28;20251;-63
2022/08/10 02:02:36;;;;;;;5.53;3.17;;;16.00;99.90;;;;;;5016587;28;20194;-63
2022/08/10 02:05:05;;;;;;;5.03;3.33;;;16.00;99.90;;;;;;5016656;28;20194;-63
2022/08/10 02:07:33;;;;;;;5.43;3.40;;;16.00;99.90;;;;;;5016377;28;20203;-63
2022/08/10 02:10:03;;;;;;;5.10;3.33;;;15.90;99.90;;;;;;5016140;28;20715;-63
2022/08/10 02:12:31;;;;;;;3.95;3.35;;;15.90;99.90;;;;;;5016446;28;20176;-64
2022/08/10 02:15:04;;;;;;;4.85;3.70;;;15.90;99.90;;;;;;5016442;28;20255;-63
2022/08/10 02:17:35;;;;;;;4.43;3.60;;;15.80;99.90;;;;;;5015146;28;20255;-63
2022/08/10 02:20:22;;;;;;;6.43;4.07;;;15.70;99.90;;;;;;5016888;28;20219;-63
2022/08/10 02:23:07;;;;;;;5.22;4.15;;;15.70;99.90;;;;;;5016249;28;20222;-63
2022/08/10 02:25:35;;;;;;;7.85;4.45;;;15.70;99.90;;;;;;5016207;28;20161;-63
2022/08/10 02:28:04;;;;;;;4.20;3.80;;;15.60;99.90;;;;;;5016069;28;20195;-64
2022/08/10 02:30:30;;;;;;;7.15;4.30;;;15.50;99.90;;;;;;5016651;28;20249;-64
2022/08/10 02:32:58;;;;;;;6.57;4.53;;;15.50;99.90;;;;;;5018002;28;20157;-63
2022/08/10 02:35:25;;;;;;;5.43;3.50;;;15.60;99.90;;;;;;5018347;28;20230;-64
2022/08/10 02:37:56;;;;;;;6.95;4.15;;;15.60;99.90;;;;;;5017761;28;20713;-63
2022/08/10 02:40:24;;;;;;;5.72;3.90;;;15.60;99.90;;;;;;5017657;28;20171;-63
2022/08/10 02:43:08;;;;;;;7.47;3.90;;;15.50;99.90;;;;;;5032933;28;20211;-61
2022/08/10 02:45:40;;;;;;;5.30;4.20;;;15.50;99.90;;;;;;4998454;28;20176;-61
2022/08/10 02:48:12;;;;;;;6.18;3.92;;;15.40;99.90;;;;;;5015716;28;20206;-61
2022/08/10 02:50:41;;;;;;;5.18;4.07;;;15.40;99.90;;;;;;5015905;28;20194;-62
2022/08/10 02:53:22;;;;;;;5.57;3.70;;;15.40;99.90;;;;;;5015618;28;20172;-61
2022/08/10 02:56:16;;;;;;;4.22;3.42;;;15.40;99.90;;;;;;5015338;28;20211;-61
2022/08/10 02:58:44;;;;;;;7.53;4.25;;;15.40;99.90;;;;;;5001693;28;20208;-61
2022/08/10 03:01:16;;;;;;;7.20;4.25;;;15.40;99.90;;;;;;5015640;28;20178;-61
2022/08/10 03:03:56;;;;;;;7.13;4.03;;;15.50;99.90;;;;;;5015673;28;20644;-61
2022/08/10 03:06:26;;;;;;;5.68;4.07;;;15.50;99.90;;;;;;5015326;28;20182;-60
2022/08/10 03:08:53;;;;;;;6.10;4.25;;;15.50;99.90;;;;;;5015480;28;20199;-61
2022/08/10 03:11:26;;;;;;;5.55;3.78;;;15.50;99.90;;;;;;5015115;28;20255;-61
2022/08/10 03:13:54;;;;;;;4.53;3.95;;;15.50;99.90;;;;;;5015460;28;20219;-61
2022/08/10 03:16:21;;;;;;;7.18;3.65;;;15.40;99.90;;;;;;5015874;28;20176;-60
2022/08/10 03:18:48;;;;;;;7.25;3.90;;;15.40;99.90;;;;;;5015153;28;20283;-60
2022/08/10 03:21:16;;;;;;;4.63;3.60;;;15.40;99.90;;;;;;5015373;28;20168;-61
2022/08/10 03:23:44;;;;;;;4.10;3.70;;;15.40;99.90;;;;;;5015150;28;20183;-61
2022/08/10 03:26:13;;;;;;;3.50;3.20;;;15.40;99.90;;;;;;5014909;28;20192;-61
2022/08/10 03:28:39;;;;;;;4.50;4.03;;;15.30;99.90;;;;;;4997023;28;20282;-60
2022/08/10 03:31:05;;;;;;;4.20;3.47;;;15.20;99.90;;;;;;5015008;28;20229;-60
2022/08/10 03:33:34;;;;;;;5.57;3.83;;;15.20;99.90;;;;;;5015434;28;20167;-60
2022/08/10 03:36:00;;;;;;;6.53;3.90;;;15.20;99.90;;;;;;5014891;28;20164;-61
2022/08/10 03:38:26;;;;;;;6.03;3.40;;;15.20;99.90;;;;;;5014873;28;20203;-60
2022/08/10 03:40:54;;;;;;;4.78;3.90;;;15.10;99.90;;;;;;5014591;28;20219;-61
2022/08/10 03:43:21;;;;;;;4.70;4.05;;;15.00;99.90;;;;;;5014955;28;20187;-60
2022/08/10 03:45:56;;;;;;;4.63;3.53;;;15.00;99.90;;;;;;5029902;28;20640;-61
2022/08/10 03:48:28;;;;;;;7.97;4.20;;;14.90;99.90;;;;;;5014665;28;20732;-62
2022/08/10 03:50:55;;;;;;;5.93;3.80;;;14.80;99.90;;;;;;5014703;28;20218;-60
2022/08/10 03:53:22;;;;;;;4.68;4.15;;;14.60;99.90;;;;;;5014867;28;20175;-61
2022/08/10 03:55:49;;;;;;;6.25;3.90;;;14.50;99.90;;;;;;4996690;28;20192;-61
2022/08/10 03:58:15;;;;;;;4.63;3.85;;;14.50;99.90;;;;;;5015193;28;20191;-61
2022/08/10 04:00:42;;;;;;;5.38;3.60;;;14.40;99.90;;;;;;5015069;28;20518;-61
2022/08/10 04:03:08;;;;;;;6.15;4.05;;;14.40;99.90;;;;;;5014642;28;20176;-61
2022/08/10 04:05:34;;;;;;;4.72;3.85;;;14.40;99.90;;;;;;5029783;28;20679;-61
2022/08/10 04:08:01;;;;;;;5.90;4.22;;;14.30;99.90;;;;;;5014226;28;20203;-61
2022/08/10 04:10:28;;;;;;;5.47;4.20;;;14.30;99.90;;;;;;5013948;28;20207;-61
2022/08/10 04:12:54;;;;;;;6.05;4.80;;;14.30;99.90;;;;;;5014156;28;20184;-61
2022/08/10 04:15:23;;;;;;;7.90;4.65;;;14.30;99.90;;;;;;5014696;28;20168;-61
2022/08/10 04:17:49;;;;;;;8.02;4.60;;;14.30;99.90;;;;;;5029182;28;20617;-61
2022/08/10 04:20:18;;;;;;;9.25;4.55;;;14.20;99.90;;;;;;5029400;28;20183;-61
2022/08/10 04:22:49;;;;;;;5.32;4.80;;;14.20;99.90;;;;;;5014338;28;20176;-61
2022/08/10 04:25:16;;;;;;;7.10;4.72;;;14.20;99.90;;;;;;5013814;28;20168;-61
2022/08/10 04:27:43;;;;;;;6.15;4.68;;;14.10;99.90;;;;;;5014136;28;20195;-61
2022/08/10 04:30:09;;;;;;;6.28;4.82;;;14.20;99.90;;;;;;5014095;28;20191;-61
2022/08/10 04:32:36;;;;;;;7.53;4.70;;;14.20;99.90;;;;;;5014036;28;20187;-61
2022/08/10 04:35:03;;;;;;;7.43;4.95;;;14.20;99.90;;;;;;5013872;28;20250;-61
2022/08/10 04:37:30;;;;;;;6.43;4.47;;;14.30;99.90;;;;;;5013614;28;20200;-61
2022/08/10 04:39:56;;;;;;;5.85;4.65;;;14.30;99.90;;;;;;5013368;28;20772;-60
2022/08/10 04:42:22;;;;;;;6.90;4.70;;;14.40;99.90;;;;;;5013402;28;20175;-61
2022/08/10 04:44:49;;;;;;;6.40;4.80;;;14.50;99.90;;;;;;4996138;28;20175;-60
2022/08/10 04:47:15;;;;;;;6.70;4.88;;;14.50;99.90;;;;;;5013629;28;20548;-61
2022/08/10 04:49:41;;;;;;;8.13;5.22;;;14.50;99.90;;;;;;5014078;28;20200;-61
2022/08/10 04:52:07;;;;;;;7.18;4.95;;;14.50;99.90;;;;;;5013630;28;20171;-61
2022/08/10 04:54:33;;;;;;;7.07;5.10;;;14.60;99.90;;;;;;4995887;28;20176;-60
2022/08/10 04:56:58;;;;;;;6.07;4.78;;;14.60;99.90;;;;;;4996533;28;20230;-61
2022/08/10 04:59:24;;;;;;;8.73;5.30;;;14.60;99.90;;;;;;4996207;28;20226;-60
2022/08/10 05:01:50;;;;;;;7.65;6.18;;;14.60;99.90;;;;;;5014153;28;20176;-60
2022/08/10 05:04:16;;;;;;;10.55;6.40;;;14.60;99.90;;;;;;5013830;28;20175;-61
2022/08/10 05:06:42;;;;;;;12.63;6.35;;;14.70;99.90;;;;;;4995864;28;20193;-59
2022/08/10 05:09:08;;;;;;;8.90;6.28;;;14.70;99.90;;;;;;5013245;28;20286;-60
2022/08/10 05:11:34;;;;;;;8.13;6.15;;;14.70;99.90;;;;;;5013332;28;20187;-60
2022/08/10 05:13:59;;;;;;;9.23;6.32;;;14.80;99.90;;;;;;5013367;28;20254;-61
2022/08/10 05:16:25;;;;;;;9.13;6.22;;;14.90;99.90;;;;;;5013626;28;20171;-60
2022/08/10 05:18:51;;;;;;;10.88;6.20;;;14.90;99.90;;;;;;4995738;28;20200;-61
2022/08/10 05:21:16;;;;;;;8.07;5.80;;;14.90;99.90;;;;;;5013601;28;20186;-61
2022/08/10 05:23:42;;;;;;;9.18;6.40;;;14.90;99.90;;;;;;5013415;28;20541;-60
2022/08/10 05:26:09;;;;;;;8.00;6.18;;;15.00;99.90;;;;;;5013060;28;20637;-60
2022/08/10 05:28:35;;;;;;;11.38;5.78;;;15.10;99.90;;;;;;5013642;28;20644;-60
2022/08/10 05:31:00;;;;;;;12.00;6.18;;;15.20;99.90;;;;;;5013139;28;20222;-60
2022/08/10 05:33:26;;;;;;;6.75;5.60;;;15.20;99.90;;;;;;5013229;28;20182;-60
2022/08/10 05:35:52;;;;;;;7.50;5.38;;;15.30;99.90;;;;;;5013412;28;20176;-61
2022/08/10 05:38:21;;;;;;;8.25;6.10;;;15.40;99.90;;;;;;5013080;28;20200;-60
2022/08/10 05:40:48;;;;;;;9.23;6.75;;;15.50;99.90;;;;;;5012849;28;20263;-60
2022/08/10 05:43:17;;;;;;;7.07;5.75;;;15.60;99.90;;;;;;5013035;28;20171;-60
2022/08/10 05:45:44;;;;;;;9.57;6.80;;;15.60;99.90;;;;;;5013356;28;20650;-61
2022/08/10 05:48:09;;;;;;;8.43;5.90;;;15.70;99.90;;;;;;5013217;28;20274;-61
2022/08/10 05:50:35;;;;;;;9.60;7.03;;;15.80;99.90;;;;;;5012961;28;20287;-61
2022/08/10 05:53:01;;;;;;;9.23;6.13;;;15.90;99.90;;;;;;5015355;28;20168;-60
2022/08/10 05:55:29;;;;;;;12.15;6.55;;;15.90;99.90;;;;;;5016197;28;20199;-61
2022/08/10 05:57:57;;;;;;;8.38;6.18;;;16.00;99.90;;;;;;5016481;28;20199;-61
2022/08/10 06:00:24;;;;;;;7.18;6.13;;;16.10;99.90;;;;;;5016720;28;20172;-60
2022/08/10 06:02:56;;;;;;;9.73;6.05;;;16.20;99.90;;;;;;5016981;28;20170;-61
2022/08/10 06:05:30;;;;;;;9.13;6.60;;;16.20;99.90;;;;;;5031899;28;20206;-61
2022/08/10 06:08:10;;;;;;;7.75;5.57;;;16.30;99.90;;;;;;5016280;28;20207;-61
2022/08/10 06:10:37;;;;;;;7.15;6.05;;;16.40;99.90;;;;;;5016315;28;20195;-61
2022/08/10 06:15:52;;;;;;;11.90;6.80;;;16.60;99.90;;;;;;5016815;28;20167;-61
2022/08/10 06:18:19;;;;;;;7.35;5.88;;;16.70;99.90;;;;;;5016173;28;20200;-61
2022/08/10 06:20:45;;;;;;;11.98;6.32;;;16.80;99.90;;;;;;5016158;28;20172;-61
2022/08/10 06:23:12;;;;;;;9.50;6.20;;;16.80;99.90;;;;;;5016012;28;20602;-60
2022/08/10 06:25:38;;;;;;;9.02;6.53;;;16.90;99.90;;;;;;5015810;28;20179;-62
2022/08/10 06:28:07;;;;;;;8.48;5.90;;;17.00;99.90;;;;;;5016201;28;20210;-62
2022/08/10 06:30:34;;;;;;;12.98;7.32;;;17.00;99.90;;;;;;5016093;28;20754;-61
2022/08/10 06:33:02;;;;;;;10.35;5.97;;;17.20;99.90;;;;;;5016911;28;20164;-62
2022/08/10 06:35:31;;;;;;;8.43;6.07;;;17.30;99.90;;;;;;5015793;28;20258;-62
2022/08/10 06:37:59;;;;;;;11.27;6.93;;;17.40;99.90;;;;;;5030891;28;20203;-62
2022/08/10 06:40:28;;;;;;;11.95;6.63;;;17.50;99.90;;;;;;5016943;28;20684;-62
2022/08/10 06:42:56;;;;;;;8.02;5.78;;;17.60;99.90;;;;;;5032570;28;20195;-62
2022/08/10 06:45:30;;;;;;;11.40;6.50;;;17.60;99.90;;;;;;5016916;28;20176;-62
2022/08/10 06:48:24;;;;;;;7.43;5.72;;;17.70;99.90;;;;;;5017053;28;20206;-62
2022/08/10 06:50:59;;;;;;;4.95;4.45;;;17.80;99.90;;;;;;5014867;28;20696;-62
2022/08/10 06:53:35;;;;;;;9.75;6.70;;;17.90;99.90;;;;;;4998895;28;20271;-62
2022/08/10 06:56:10;;;;;;;12.25;5.85;;;18.00;99.90;;;;;;5016104;28;20188;-63
2022/08/10 06:58:40;;;;;;;7.70;5.30;;;18.10;99.90;;;;;;5016225;28;20196;-62
2022/08/10 07:01:10;;;;;;;11.23;5.82;;;18.20;99.90;;;;;;5017651;28;20179;-63
2022/08/10 07:03:43;;;;;;;9.05;5.65;;;18.30;99.90;;;;;;5018137;28;20191;-62
2022/08/10 07:06:12;;;;;;;7.20;5.55;;;18.40;99.90;;;;;;5018071;28;20168;-61
2022/08/10 07:08:40;;;;;;;6.88;4.60;;;18.50;99.90;;;;;;5018769;28;20203;-63
2022/08/10 07:11:07;;;;;;;9.23;5.07;;;18.60;99.90;;;;;;5000298;28;20196;-62
2022/08/10 07:13:37;;;;;;;7.13;4.82;;;18.70;99.90;;;;;;5018194;28;20222;-63
2022/08/10 07:16:06;;;;;;;5.90;4.53;;;18.80;99.90;;;;;;5018378;28;20230;-63
2022/08/10 07:18:34;;;;;;;5.72;4.68;;;18.80;99.90;;;;;;5017911;28;20183;-62
2022/08/10 07:21:00;;;;;;;8.85;5.18;;;19.00;99.90;;;;;;5019328;28;20583;-63
2022/08/10 07:23:28;;;;;;;7.85;4.80;;;19.10;99.90;;;;;;5020161;28;20202;-63
2022/08/10 07:25:57;;;;;;;4.40;4.00;;;19.20;99.90;;;;;;5019601;28;20176;-62
2022/08/10 07:28:23;;;;;;;6.22;3.83;;;19.30;99.90;;;;;;5019237;28;20668;-63
2022/08/10 07:30:51;;;;;;;5.97;4.22;;;19.40;99.90;;;;;;5019464;28;20206;-63
2022/08/10 07:33:19;;;;;;;6.28;4.32;;;19.60;99.90;;;;;;5001479;28;20168;-63
2022/08/10 07:35:47;;;;;;;4.60;4.03;;;19.70;99.90;;;;;;5019233;28;20172;-63
2022/08/10 07:38:21;;;;;;;6.30;4.40;;;19.80;99.90;;;;;;5019831;28;20196;-63
2022/08/10 07:40:49;;;;;;;6.07;4.25;;;20.00;99.90;;;;;;5018601;28;20239;-63
2022/08/10 07:43:19;;;;;;;6.60;3.85;;;20.10;99.90;;;;;;5033942;28;20590;-63
2022/08/10 07:45:46;;;;;;;7.55;4.28;;;20.20;99.90;;;;;;5034175;28;20186;-63
2022/08/10 07:48:24;;;;;;;6.32;4.35;;;20.30;99.90;;;;;;5019461;28;20565;-63
2022/08/10 07:50:53;;;;;;;4.47;3.55;;;20.40;99.90;;;;;;5001586;28;20202;-63
2022/08/10 07:53:23;;;;;;;6.00;4.00;;;20.50;99.90;;;;;;5018829;28;20175;-63
2022/08/10 07:55:52;;;;;;;5.93;4.15;;;20.60;99.90;;;;;;5000069;28;20198;-63
2022/08/10 07:58:21;;;;;;;5.60;3.63;;;20.70;99.90;;;;;;4999981;28;20249;-63
2022/08/10 08:00:49;;;;;;;4.55;3.20;;;20.80;99.90;;;;;;5018748;28;20176;-63
2022/08/10 08:03:15;;;;;;;7.38;3.70;;;20.90;99.90;;;;;;5018149;28;20238;-63
2022/08/10 08:05:44;;;;;;;5.93;3.40;;;21.00;99.90;;;;;;5017511;28;20180;-66
2022/08/10 08:08:13;;;;;;;5.55;3.80;;;21.10;99.90;;;;;;5017357;28;20266;-62
2022/08/10 08:10:40;;;;;;;5.82;3.58;;;21.10;99.90;;;;;;5017292;28;20233;-62
2022/08/10 08:13:05;;;;;;;8.73;3.75;;;21.30;99.90;;;;;;5017157;28;20182;-63
2022/08/10 08:15:32;;;;;;;4.32;3.38;;;21.40;99.90;;;;;;5016031;28;20239;-63
2022/08/10 08:18:00;;;;;;;5.50;3.42;;;21.50;99.90;;;;;;5017156;28;20234;-62
2022/08/10 08:20:27;;;;;;;7.88;4.20;;;21.70;99.90;;;;;;5016445;28;20206;-63
2022/08/10 08:22:54;;;;;;;6.10;3.47;;;21.80;99.90;;;;;;5014850;28;20190;-63
2022/08/10 08:25:20;;;;;;;4.75;3.80;;;21.90;99.90;;;;;;5015044;28;20187;-63
2022/08/10 08:27:51;;;;;;;4.30;3.50;;;22.00;99.90;;;;;;4996879;28;20211;-63
2022/08/10 08:30:19;;;;;;;5.38;3.42;;;22.10;99.90;;;;;;5014881;28;20187;-63
2022/08/10 08:32:47;;;;;;;12.35;4.07;;;22.30;99.90;;;;;;5014451;28;20178;-63
2022/08/10 08:35:16;;;;;;;5.57;3.72;;;22.40;99.90;;;;;;5014585;28;20168;-63
2022/08/10 08:37:48;;;;;;;4.95;3.58;;;22.50;99.90;;;;;;5029513;28;20207;-63
2022/08/10 08:40:28;;;;;;;5.53;3.47;;;22.60;99.90;;;;;;5014275;28;20168;-62
2022/08/10 08:43:05;;;;;;;7.43;3.85;;;22.70;99.90;;;;;;5014826;28;20164;-63
2022/08/10 08:46:08;;;;;;;6.18;3.80;;;22.90;99.90;;;;;;4996711;28;20171;-63
2022/08/10 08:49:02;;;;;;;4.30;3.10;;;23.00;99.90;;;;;;5014523;28;20200;-63
2022/08/10 08:51:42;;;;;;;4.53;3.75;;;23.10;99.90;;;;;;5014850;28;20176;-60
2022/08/10 08:54:39;;;;;;;6.00;4.13;;;23.30;99.90;;;;;;5014786;28;20214;-61
2022/08/10 08:57:25;;;;;;;7.18;3.65;;;23.50;99.90;;;;;;5013761;28;20215;-60
2022/08/10 09:00:20;;;;;;;5.35;3.47;;;23.70;99.90;;;;;;5013924;28;20170;-61
2022/08/10 09:03:10;;;;;;;5.35;2.97;;;23.90;99.90;;;;;;4970182;28;20188;-61
2022/08/10 09:06:01;;;;;;;7.10;3.60;;;24.10;99.90;;;;;;4995982;28;20637;-60
2022/08/10 09:08:53;;;;;;;4.00;2.70;;;24.30;99.90;;;;;;4995763;28;20294;-60
2022/08/10 09:11:47;;;;;;;4.93;3.28;;;24.60;99.90;;;;;;5028456;28;20310;-61
2022/08/10 09:14:19;;;;;;;6.65;3.63;;;24.80;99.90;;;;;;4983438;28;20671;-60
2022/08/10 09:17:34;;;;;;;5.32;3.40;;;25.00;99.90;;;;;;5013497;28;20176;-60
2022/08/10 09:20:17;;;;;;;4.50;3.00;;;25.20;99.90;;;;;;5010250;28;20208;-61
2022/08/10 09:23:25;;;;;;;13.68;3.55;;;25.40;99.90;;;;;;5013291;28;20168;-60
2022/08/10 09:26:00;;;;;;;8.07;3.40;;;25.60;99.90;;;;;;4969746;28;20192;-61
2022/08/10 09:28:32;;;;;;;3.80;3.08;;;25.70;99.90;;;;;;5016542;28;20198;-61
2022/08/10 09:31:07;;;;;;;5.22;2.95;;;25.90;99.90;;;;;;5017380;28;20199;-61
2022/08/10 09:34:01;;;;;;;5.55;3.10;;;26.10;99.90;;;;;;5017685;28;20183;-61
2022/08/10 09:36:51;;;;;;;5.00;3.17;;;26.20;99.90;;;;;;4999548;28;20961;-62
2022/08/10 09:39:39;;;;;;;5.75;3.05;;;26.30;99.90;;;;;;5032671;28;20277;-60
2022/08/10 09:42:14;;;;;;;3.03;2.70;;;26.40;99.90;;;;;;5016784;28;20168;-62
2022/08/10 09:44:55;;;;;;;5.05;3.35;;;26.50;99.90;;;;;;5017149;28;20167;-62
2022/08/10 09:47:42;;;;;;;6.63;3.08;;;26.60;99.90;;;;;;5016794;28;20183;-62
2022/08/10 09:50:40;;;;;;;5.15;3.22;;;26.80;99.90;;;;;;5017069;28;20188;-62
2022/08/10 09:53:42;;;;;;;5.20;2.85;;;26.90;99.90;;;;;;5017398;28;20172;-62
2022/08/10 09:57:01;;;;;;;6.05;2.63;;;27.10;99.90;;;;;;4966185;28;20676;-63
2022/08/10 09:59:44;;;;;;;4.65;2.80;;;27.20;99.90;;;;;;4993088;28;20211;-62
2022/08/10 10:02:20;;;;;;;7.93;3.38;;;27.30;99.90;;;;;;5032767;28;20578;-62
2022/08/10 10:05:02;;;;;;;3.00;2.67;;;27.40;99.90;;;;;;5017875;28;20574;-69
2022/08/10 10:07:28;;;;;;;7.53;2.90;;;27.50;99.90;;;;;;5016914;28;20207;-64
2022/08/10 10:10:03;;;;;;;3.78;3.00;;;27.50;99.90;;;;;;5016264;28;20231;-65
2022/08/10 10:13:05;;;;;;;7.32;3.30;;;27.50;99.90;;;;;;5016005;28;20615;-65
2022/08/10 10:15:47;;;;;;;4.00;2.83;;;27.60;99.90;;;;;;5016315;28;20166;-64
2022/08/10 10:18:28;;;;;;;4.13;2.75;;;27.70;99.90;;;;;;5031410;28;20204;-64
2022/08/10 10:21:06;;;;;;;2.95;2.65;;;27.70;99.90;;;;;;5016314;28;20180;-64
2022/08/10 10:24:06;;;;;;;5.00;3.10;;;27.70;99.90;;;;;;5016764;28;20166;-64
2022/08/10 10:26:34;;;;;;;4.78;2.78;;;27.70;99.90;;;;;;5016345;28;20187;-64
2022/08/10 10:29:35;;;;;;;8.48;3.30;;;27.70;99.90;;;;;;5016121;28;20195;-64
2022/08/10 10:32:51;;;;;;;4.47;3.28;;;27.80;99.90;;;;;;5016237;28;20171;-65
2022/08/10 10:35:27;;;;;;;5.07;2.85;;;27.80;99.90;;;;;;4955750;29;20158;-64
2022/08/10 10:37:56;;;;;;;3.00;2.58;;;27.80;99.90;;;;;;5013796;28;20219;-64
2022/08/10 10:40:26;;;;;;;3.67;2.80;;;27.80;99.90;;;;;;5015282;28;20172;-64
2022/08/10 10:42:54;;;;;;;4.72;3.03;;;27.90;99.90;;;;;;5015565;28;20183;-64
2022/08/10 10:45:43;;;;;;;4.18;3.20;;;27.90;99.90;;;;;;5015877;28;20183;-64
2022/08/10 10:48:22;;;;;;;6.25;3.08;;;27.90;99.90;;;;;;5030900;28;20200;-65
2022/08/10 10:51:22;;;;;;;5.63;2.85;;;28.00;99.90;;;;;;5015568;28;20192;-64
2022/08/10 10:53:57;;;;;;;4.28;3.05;;;28.00;99.90;;;;;;5015636;28;20164;-64
2022/08/10 10:56:49;;;;;;;6.25;3.13;;;28.00;99.90;;;;;;5015403;28;20184;-64
2022/08/10 10:59:40;;;;;;;4.80;2.90;;;28.10;99.90;;;;;;5015457;28;20275;-64
2022/08/10 11:02:37;;;;;;;4.03;2.78;;;28.10;99.90;;;;;;5015615;28;20602;-65
2022/08/10 11:05:22;;;;;;;3.80;2.83;;;28.10;99.90;;;;;;4997855;28;20625;-62
2022/08/10 11:08:11;;;;;;;6.35;2.97;;;28.10;99.90;;;;;;5015109;28;20656;-62
2022/08/10 11:10:44;;;;;;;4.20;2.55;;;28.20;99.90;;;;;;4997550;28;20188;-62
2022/08/10 11:13:33;;;;;;;4.63;3.00;;;28.20;99.90;;;;;;5016151;28;20218;-64
2022/08/10 11:16:12;;;;;;;4.80;3.13;;;28.30;99.90;;;;;;5017202;28;20152;-62
2022/08/10 11:18:43;;;;;;;4.43;2.65;;;28.40;99.90;;;;;;5016536;28;20196;-62
2022/08/10 11:21:31;;;;;;;5.85;3.00;;;28.50;99.90;;;;;;5015687;28;20163;-62
2022/08/10 11:24:04;;;;;;;5.20;3.00;;;28.70;99.90;;;;;;4997485;28;20171;-63
2022/08/10 11:26:38;;;;;;;5.30;2.80;;;28.80;99.90;;;;;;5014977;28;20171;-62
2022/08/10 11:29:12;;;;;;;5.43;2.85;;;29.10;99.90;;;;;;5014932;28;20227;-62
2022/08/10 11:32:14;;;;;;;4.80;2.72;;;29.30;99.90;;;;;;5014224;28;20777;-62
2022/08/10 11:34:52;;;;;;;4.55;2.70;;;29.60;99.90;;;;;;5012484;28;20191;-62
2022/08/10 11:37:28;;;;;;;5.22;2.95;;;29.80;99.90;;;;;;5014919;28;20175;-62
2022/08/10 11:40:19;;;;;;;3.80;2.75;;;29.80;99.90;;;;;;5015457;28;20168;-66
2022/08/10 11:42:58;;;;;;;6.20;2.90;;;29.90;99.90;;;;;;5014717;28;20254;-62
2022/08/10 11:45:30;;;;;;;4.28;2.58;;;30.00;99.90;;;;;;5014651;28;20172;-62
2022/08/10 11:48:05;;;;;;;6.90;3.05;;;30.10;99.90;;;;;;5015135;28;20196;-62
2022/08/10 11:50:36;;;;;;;8.30;2.67;;;30.30;99.90;;;;;;5014598;28;20188;-67
2022/08/10 11:53:25;;;;;;;3.88;2.60;;;30.50;99.90;;;;;;5014853;28;20164;-62
2022/08/10 11:55:55;;;;;;;3.22;2.50;;;30.60;99.90;;;;;;5014059;28;20234;-69
2022/08/10 12:01:14;;;;;;;3.70;2.65;;;30.70;99.90;;;;;;5014639;28;20252;-62
2022/08/10 12:03:42;;;;;;;3.28;2.67;;;30.50;99.90;;;;;;4996712;28;20653;-62
2022/08/10 12:06:12;;;;;;;5.32;2.90;;;30.60;99.90;;;;;;5014576;28;20288;-63
2022/08/10 12:08:41;;;;;;;4.60;2.95;;;30.60;99.90;;;;;;5029229;28;20287;-62
2022/08/10 12:11:13;;;;;;;11.75;3.15;;;30.80;99.90;;;;;;5013794;28;20208;-62
2022/08/10 12:13:51;;;;;;;7.20;2.80;;;31.00;99.90;;;;;;4996635;28;20183;-62
2022/08/10 12:16:22;;;;;;;3.45;2.58;;;31.10;99.90;;;;;;5014011;28;20160;-63
2022/08/10 12:19:04;;;;;;;4.95;2.63;;;31.30;99.90;;;;;;4996362;28;20290;-62
2022/08/10 12:21:44;;;;;;;3.25;2.50;;;31.40;99.90;;;;;;5014088;28;20183;-62
2022/08/10 12:24:29;;;;;;;7.03;3.03;;;31.50;99.90;;;;;;5014024;28;20164;-62
2022/08/10 12:27:07;;;;;;;4.63;2.70;;;31.80;99.90;;;;;;5028955;28;20172;-62
2022/08/10 12:29:47;;;;;;;4.18;2.30;;;31.90;99.90;;;;;;5013753;28;20672;-62
2022/08/10 12:32:54;;;;;;;3.67;2.25;;;32.00;99.90;;;;;;5014119;28;20160;-62
2022/08/10 12:35:45;;;;;;;3.50;2.25;;;31.90;99.90;;;;;;5013324;28;20192;-62
2022/08/10 12:38:29;;;;;;;4.40;2.55;;;32.10;99.90;;;;;;4996095;28;20231;-62
2022/08/10 12:40:59;;;;;;;2.95;2.25;;;32.10;99.90;;;;;;5014008;28;20187;-62
2022/08/10 12:43:42;;;;;;;2.80;2.25;;;32.30;99.90;;;;;;5014307;28;20172;-62
2022/08/10 12:46:26;;;;;;;3.45;2.38;;;32.40;99.90;;;;;;5013740;28;20194;-62
2022/08/10 12:49:25;;;;;;;8.07;3.90;;;32.50;99.90;;;;;;5013688;28;20672;-63
2022/08/10 12:52:24;;;;;;;6.30;2.78;;;32.50;99.90;;;;;;5013760;28;20172;-62
2022/08/10 12:54:52;;;;;;;3.28;2.42;;;32.50;99.90;;;;;;5028652;28;20270;-63
2022/08/10 12:57:22;;;;;;;3.58;2.60;;;32.70;99.90;;;;;;5013188;28;20184;-62
2022/08/10 12:59:51;;;;;;;4.13;2.78;;;32.80;99.90;;;;;;5028799;28;20270;-62
2022/08/10 13:02:30;;;;;;;5.38;2.55;;;32.80;99.90;;;;;;5014882;28;20207;-62
2022/08/10 13:04:58;;;;;;;2.45;2.22;;;32.90;99.90;;;;;;5017844;28;20168;-62
2022/08/10 13:07:36;;;;;;;2.90;2.30;;;33.00;99.90;;;;;;5017340;28;20294;-62
2022/08/10 13:10:16;;;;;;;3.42;2.50;;;33.10;99.90;;;;;;5017740;28;20612;-62
2022/08/10 13:12:49;;;;;;;3.00;2.00;;;33.30;99.90;;;;;;5017247;28;20156;-62
2022/08/10 13:15:32;;;;;;;3.40;2.50;;;33.30;99.90;;;;;;5017644;28;20247;-62
2022/08/10 13:18:01;;;;;;;5.15;2.20;;;33.20;99.90;;;;;;5017668;28;20198;-62
2022/08/10 13:20:33;;;;;;;2.47;2.17;;;33.20;99.90;;;;;;5017499;28;20191;-62
2022/08/10 13:23:02;;;;;;;5.00;2.53;;;33.30;99.90;;;;;;5017630;28;20636;-62
2022/08/10 13:25:35;;;;;;;4.80;2.65;;;33.30;99.90;;;;;;5017681;28;20648;-62
2022/08/10 13:28:06;;;;;;;4.47;2.30;;;33.40;99.90;;;;;;5017089;28;20195;-63